sensor_id;sensor_type;location;lat;lon;timestamp;P1;durP1;ratioP1;P2;durP2;ratioP2
71679;SDS011;59512;42.662;23.254;2022-11-20T00:01:14;5.67;;;1.60;;
71679;SDS011;59512;42.662;23.254;2022-11-20T00:03:44;4.38;;;0.90;;
71679;SDS011;59512;42.662;23.254;2022-11-20T00:06:11;4.47;;;1.42;;
71679;SDS011;59512;42.662;23.254;2022-11-20T00:08:41;6.07;;;1.23;;
71679;SDS011;59512;42.662;23.254;2022-11-20T00:11:07;6.40;;;1.50;;
71679;SDS011;59512;42.662;23.254;2022-11-20T00:13:36;6.18;;;1.58;;
71679;SDS011;59512;42.662;23.254;2022-11-20T00:16:02;4.78;;;1.20;;
71679;SDS011;59512;42.662;23.254;2022-11-20T00:18:28;6.13;;;1.20;;
71679;SDS011;59512;42.662;23.254;2022-11-20T00:20:59;6.63;;;1.23;;
71679;SDS011;59512;42.662;23.254;2022-11-20T00:23:32;4.13;;;1.20;;
71679;SDS011;59512;42.662;23.254;2022-11-20T00:26:00;6.88;;;1.48;;
71679;SDS011;59512;42.662;23.254;2022-11-20T00:28:27;4.83;;;1.17;;
71679;SDS011;59512;42.662;23.254;2022-11-20T00:30:54;4.40;;;1.38;;
71679;SDS011;59512;42.662;23.254;2022-11-20T00:33:25;7.83;;;1.20;;
71679;SDS011;59512;42.662;23.254;2022-11-20T00:35:51;6.07;;;1.33;;
71679;SDS011;59512;42.662;23.254;2022-11-20T00:38:16;4.90;;;1.50;;
71679;SDS011;59512;42.662;23.254;2022-11-20T00:40:41;5.77;;;1.40;;
71679;SDS011;59512;42.662;23.254;2022-11-20T00:43:07;4.00;;;1.20;;
71679;SDS011;59512;42.662;23.254;2022-11-20T00:45:32;5.13;;;1.20;;
71679;SDS011;59512;42.662;23.254;2022-11-20T00:47:57;6.05;;;1.48;;
71679;SDS011;59512;42.662;23.254;2022-11-20T00:50:23;6.63;;;1.27;;
71679;SDS011;59512;42.662;23.254;2022-11-20T00:52:48;5.13;;;1.50;;
71679;SDS011;59512;42.662;23.254;2022-11-20T00:55:14;6.00;;;1.47;;
71679;SDS011;59512;42.662;23.254;2022-11-20T00:57:39;5.87;;;1.40;;
71679;SDS011;59512;42.662;23.254;2022-11-20T01:00:05;7.17;;;1.63;;
71679;SDS011;59512;42.662;23.254;2022-11-20T01:02:33;5.05;;;1.50;;
71679;SDS011;59512;42.662;23.254;2022-11-20T01:04:58;5.37;;;1.30;;
71679;SDS011;59512;42.662;23.254;2022-11-20T01:07:24;7.53;;;1.67;;
71679;SDS011;59512;42.662;23.254;2022-11-20T01:09:49;6.78;;;1.35;;
71679;SDS011;59512;42.662;23.254;2022-11-20T01:12:15;4.77;;;1.53;;
71679;SDS011;59512;42.662;23.254;2022-11-20T01:14:40;3.73;;;1.30;;
71679;SDS011;59512;42.662;23.254;2022-11-20T01:17:05;5.73;;;1.40;;
71679;SDS011;59512;42.662;23.254;2022-11-20T01:19:31;4.30;;;1.27;;
71679;SDS011;59512;42.662;23.254;2022-11-20T01:21:56;5.25;;;1.40;;
71679;SDS011;59512;42.662;23.254;2022-11-20T01:24:22;5.15;;;1.33;;
71679;SDS011;59512;42.662;23.254;2022-11-20T01:26:48;3.93;;;1.20;;
71679;SDS011;59512;42.662;23.254;2022-11-20T01:29:16;6.28;;;1.20;;
71679;SDS011;59512;42.662;23.254;2022-11-20T01:31:43;5.47;;;1.42;;
71679;SDS011;59512;42.662;23.254;2022-11-20T01:34:13;5.10;;;1.10;;
71679;SDS011;59512;42.662;23.254;2022-11-20T01:36:40;4.30;;;1.30;;
71679;SDS011;59512;42.662;23.254;2022-11-20T01:39:07;6.28;;;1.20;;
71679;SDS011;59512;42.662;23.254;2022-11-20T01:41:36;6.63;;;1.50;;
71679;SDS011;59512;42.662;23.254;2022-11-20T01:44:22;4.70;;;1.30;;
71679;SDS011;59512;42.662;23.254;2022-11-20T01:47:34;4.97;;;1.30;;
71679;SDS011;59512;42.662;23.254;2022-11-20T01:50:12;4.47;;;1.30;;
71679;SDS011;59512;42.662;23.254;2022-11-20T01:55:31;4.57;;;1.13;;
71679;SDS011;59512;42.662;23.254;2022-11-20T01:58:00;5.78;;;1.60;;
71679;SDS011;59512;42.662;23.254;2022-11-20T02:00:26;4.15;;;1.30;;
71679;SDS011;59512;42.662;23.254;2022-11-20T02:02:53;4.40;;;1.13;;
71679;SDS011;59512;42.662;23.254;2022-11-20T02:05:35;4.65;;;1.35;;
71679;SDS011;59512;42.662;23.254;2022-11-20T02:08:04;5.07;;;1.23;;
71679;SDS011;59512;42.662;23.254;2022-11-20T02:10:30;4.88;;;1.42;;
71679;SDS011;59512;42.662;23.254;2022-11-20T02:12:57;4.40;;;1.30;;
71679;SDS011;59512;42.662;23.254;2022-11-20T02:15:41;4.90;;;1.40;;
71679;SDS011;59512;42.662;23.254;2022-11-20T02:18:07;4.40;;;1.38;;
71679;SDS011;59512;42.662;23.254;2022-11-20T02:20:34;5.88;;;1.40;;
71679;SDS011;59512;42.662;23.254;2022-11-20T02:23:03;6.40;;;1.10;;
71679;SDS011;59512;42.662;23.254;2022-11-20T02:25:31;4.60;;;1.27;;
71679;SDS011;59512;42.662;23.254;2022-11-20T02:27:58;4.10;;;1.40;;
71679;SDS011;59512;42.662;23.254;2022-11-20T02:30:23;4.93;;;1.27;;
71679;SDS011;59512;42.662;23.254;2022-11-20T02:32:49;5.40;;;1.37;;
71679;SDS011;59512;42.662;23.254;2022-11-20T02:37:42;5.43;;;1.30;;
71679;SDS011;59512;42.662;23.254;2022-11-20T02:40:08;6.93;;;1.35;;
71679;SDS011;59512;42.662;23.254;2022-11-20T02:42:35;5.63;;;1.35;;
71679;SDS011;59512;42.662;23.254;2022-11-20T02:45:00;5.18;;;1.25;;
71679;SDS011;59512;42.662;23.254;2022-11-20T02:47:26;7.00;;;1.53;;
71679;SDS011;59512;42.662;23.254;2022-11-20T02:49:51;5.33;;;1.27;;
71679;SDS011;59512;42.662;23.254;2022-11-20T02:52:17;6.13;;;1.55;;
71679;SDS011;59512;42.662;23.254;2022-11-20T02:54:42;2.87;;;1.10;;
71679;SDS011;59512;42.662;23.254;2022-11-20T02:57:07;5.23;;;1.30;;
71679;SDS011;59512;42.662;23.254;2022-11-20T02:59:33;6.07;;;1.67;;
71679;SDS011;59512;42.662;23.254;2022-11-20T03:01:58;7.83;;;1.90;;
71679;SDS011;59512;42.662;23.254;2022-11-20T03:04:23;9.23;;;2.00;;
71679;SDS011;59512;42.662;23.254;2022-11-20T03:06:49;5.93;;;1.55;;
71679;SDS011;59512;42.662;23.254;2022-11-20T03:09:14;7.73;;;1.73;;
71679;SDS011;59512;42.662;23.254;2022-11-20T03:11:40;6.40;;;1.70;;
71679;SDS011;59512;42.662;23.254;2022-11-20T03:14:05;6.77;;;1.40;;
71679;SDS011;59512;42.662;23.254;2022-11-20T03:16:31;7.63;;;1.40;;
71679;SDS011;59512;42.662;23.254;2022-11-20T03:18:57;5.45;;;1.55;;
71679;SDS011;59512;42.662;23.254;2022-11-20T03:21:22;6.23;;;1.53;;
71679;SDS011;59512;42.662;23.254;2022-11-20T03:23:47;7.10;;;1.55;;
71679;SDS011;59512;42.662;23.254;2022-11-20T03:26:17;4.03;;;1.03;;
71679;SDS011;59512;42.662;23.254;2022-11-20T03:28:48;5.28;;;1.30;;
71679;SDS011;59512;42.662;23.254;2022-11-20T03:31:15;5.40;;;1.40;;
71679;SDS011;59512;42.662;23.254;2022-11-20T03:33:41;7.33;;;1.50;;
71679;SDS011;59512;42.662;23.254;2022-11-20T03:36:08;6.50;;;1.48;;
71679;SDS011;59512;42.662;23.254;2022-11-20T03:38:36;5.55;;;1.75;;
71679;SDS011;59512;42.662;23.254;2022-11-20T03:41:02;6.80;;;1.50;;
71679;SDS011;59512;42.662;23.254;2022-11-20T03:43:30;8.95;;;1.60;;
71679;SDS011;59512;42.662;23.254;2022-11-20T03:45:55;5.68;;;1.33;;
71679;SDS011;59512;42.662;23.254;2022-11-20T03:48:21;3.80;;;1.23;;
71679;SDS011;59512;42.662;23.254;2022-11-20T03:50:46;3.58;;;1.10;;
71679;SDS011;59512;42.662;23.254;2022-11-20T03:53:13;5.25;;;1.38;;
71679;SDS011;59512;42.662;23.254;2022-11-20T03:55:39;3.95;;;1.13;;
71679;SDS011;59512;42.662;23.254;2022-11-20T03:58:04;5.30;;;1.48;;
71679;SDS011;59512;42.662;23.254;2022-11-20T04:00:29;6.82;;;1.20;;
71679;SDS011;59512;42.662;23.254;2022-11-20T04:02:57;5.13;;;1.50;;
71679;SDS011;59512;42.662;23.254;2022-11-20T04:05:24;5.25;;;1.20;;
71679;SDS011;59512;42.662;23.254;2022-11-20T04:07:49;5.57;;;1.40;;
71679;SDS011;59512;42.662;23.254;2022-11-20T04:10:15;5.00;;;1.27;;
71679;SDS011;59512;42.662;23.254;2022-11-20T04:12:40;4.70;;;1.20;;
71679;SDS011;59512;42.662;23.254;2022-11-20T04:15:06;5.60;;;1.30;;
71679;SDS011;59512;42.662;23.254;2022-11-20T04:17:31;5.03;;;1.30;;
71679;SDS011;59512;42.662;23.254;2022-11-20T04:19:57;4.07;;;1.38;;
71679;SDS011;59512;42.662;23.254;2022-11-20T04:22:22;3.22;;;0.95;;
71679;SDS011;59512;42.662;23.254;2022-11-20T04:24:48;3.50;;;1.23;;
71679;SDS011;59512;42.662;23.254;2022-11-20T04:27:13;4.80;;;1.10;;
71679;SDS011;59512;42.662;23.254;2022-11-20T04:29:38;2.83;;;0.80;;
71679;SDS011;59512;42.662;23.254;2022-11-20T04:32:04;5.57;;;1.30;;
71679;SDS011;59512;42.662;23.254;2022-11-20T04:34:29;6.78;;;1.10;;
71679;SDS011;59512;42.662;23.254;2022-11-20T04:36:55;6.00;;;1.20;;
71679;SDS011;59512;42.662;23.254;2022-11-20T04:39:20;5.30;;;1.10;;
71679;SDS011;59512;42.662;23.254;2022-11-20T04:41:45;2.93;;;0.80;;
71679;SDS011;59512;42.662;23.254;2022-11-20T04:44:11;6.00;;;1.20;;
71679;SDS011;59512;42.662;23.254;2022-11-20T04:46:38;4.10;;;0.90;;
71679;SDS011;59512;42.662;23.254;2022-11-20T04:49:05;4.43;;;1.37;;
71679;SDS011;59512;42.662;23.254;2022-11-20T04:51:31;6.72;;;1.17;;
71679;SDS011;59512;42.662;23.254;2022-11-20T04:53:56;4.57;;;1.20;;
71679;SDS011;59512;42.662;23.254;2022-11-20T04:56:22;5.77;;;1.20;;
71679;SDS011;59512;42.662;23.254;2022-11-20T04:58:48;4.10;;;1.00;;
71679;SDS011;59512;42.662;23.254;2022-11-20T05:01:14;4.35;;;1.00;;
71679;SDS011;59512;42.662;23.254;2022-11-20T05:03:41;4.10;;;0.95;;
71679;SDS011;59512;42.662;23.254;2022-11-20T05:06:08;5.53;;;1.20;;
71679;SDS011;59512;42.662;23.254;2022-11-20T05:08:35;4.07;;;1.13;;
71679;SDS011;59512;42.662;23.254;2022-11-20T05:11:01;4.20;;;0.93;;
71679;SDS011;59512;42.662;23.254;2022-11-20T05:13:27;4.50;;;1.00;;
71679;SDS011;59512;42.662;23.254;2022-11-20T05:15:52;5.40;;;1.02;;
71679;SDS011;59512;42.662;23.254;2022-11-20T05:18:18;4.50;;;1.00;;
71679;SDS011;59512;42.662;23.254;2022-11-20T05:20:43;5.00;;;1.40;;
71679;SDS011;59512;42.662;23.254;2022-11-20T05:23:08;5.63;;;1.35;;
71679;SDS011;59512;42.662;23.254;2022-11-20T05:25:34;5.47;;;1.10;;
71679;SDS011;59512;42.662;23.254;2022-11-20T05:27:59;5.80;;;1.23;;
71679;SDS011;59512;42.662;23.254;2022-11-20T05:30:25;5.37;;;1.20;;
71679;SDS011;59512;42.662;23.254;2022-11-20T05:32:50;4.60;;;1.20;;
71679;SDS011;59512;42.662;23.254;2022-11-20T05:35:15;7.40;;;1.42;;
71679;SDS011;59512;42.662;23.254;2022-11-20T05:37:41;4.00;;;1.03;;
71679;SDS011;59512;42.662;23.254;2022-11-20T05:40:06;4.77;;;1.13;;
71679;SDS011;59512;42.662;23.254;2022-11-20T05:42:32;4.88;;;1.27;;
71679;SDS011;59512;42.662;23.254;2022-11-20T05:44:58;4.30;;;1.17;;
71679;SDS011;59512;42.662;23.254;2022-11-20T05:47:25;4.07;;;1.00;;
71679;SDS011;59512;42.662;23.254;2022-11-20T05:49:51;5.03;;;1.20;;
71679;SDS011;59512;42.662;23.254;2022-11-20T05:52:17;4.27;;;1.07;;
71679;SDS011;59512;42.662;23.254;2022-11-20T05:54:42;3.37;;;1.10;;
71679;SDS011;59512;42.662;23.254;2022-11-20T05:57:07;5.90;;;1.00;;
71679;SDS011;59512;42.662;23.254;2022-11-20T05:59:33;3.95;;;1.00;;
71679;SDS011;59512;42.662;23.254;2022-11-20T06:01:58;3.60;;;1.00;;
71679;SDS011;59512;42.662;23.254;2022-11-20T06:04:23;4.80;;;1.00;;
71679;SDS011;59512;42.662;23.254;2022-11-20T06:06:49;5.17;;;1.30;;
71679;SDS011;59512;42.662;23.254;2022-11-20T06:09:14;4.10;;;1.00;;
71679;SDS011;59512;42.662;23.254;2022-11-20T06:11:40;5.07;;;1.52;;
71679;SDS011;59512;42.662;23.254;2022-11-20T06:14:05;6.20;;;1.48;;
71679;SDS011;59512;42.662;23.254;2022-11-20T06:16:31;5.17;;;1.53;;
71679;SDS011;59512;42.662;23.254;2022-11-20T06:18:56;5.65;;;1.38;;
71679;SDS011;59512;42.662;23.254;2022-11-20T06:21:22;5.70;;;1.25;;
71679;SDS011;59512;42.662;23.254;2022-11-20T06:23:48;5.20;;;1.27;;
71679;SDS011;59512;42.662;23.254;2022-11-20T06:26:17;5.38;;;1.60;;
71679;SDS011;59512;42.662;23.254;2022-11-20T06:28:46;6.28;;;1.25;;
71679;SDS011;59512;42.662;23.254;2022-11-20T06:31:13;4.10;;;1.10;;
71679;SDS011;59512;42.662;23.254;2022-11-20T06:33:39;4.88;;;1.35;;
71679;SDS011;59512;42.662;23.254;2022-11-20T06:36:05;6.00;;;1.30;;
71679;SDS011;59512;42.662;23.254;2022-11-20T06:38:30;4.47;;;1.27;;
71679;SDS011;59512;42.662;23.254;2022-11-20T06:40:56;6.43;;;1.52;;
71679;SDS011;59512;42.662;23.254;2022-11-20T06:43:22;5.80;;;1.13;;
71679;SDS011;59512;42.662;23.254;2022-11-20T06:45:54;5.77;;;1.17;;
71679;SDS011;59512;42.662;23.254;2022-11-20T06:48:20;7.00;;;1.40;;
71679;SDS011;59512;42.662;23.254;2022-11-20T06:50:47;5.05;;;1.17;;
71679;SDS011;59512;42.662;23.254;2022-11-20T06:53:12;6.90;;;1.30;;
71679;SDS011;59512;42.662;23.254;2022-11-20T06:55:41;5.15;;;1.17;;
71679;SDS011;59512;42.662;23.254;2022-11-20T06:58:07;6.75;;;1.40;;
71679;SDS011;59512;42.662;23.254;2022-11-20T07:00:32;6.33;;;1.33;;
71679;SDS011;59512;42.662;23.254;2022-11-20T07:02:58;4.40;;;1.10;;
71679;SDS011;59512;42.662;23.254;2022-11-20T07:05:28;6.17;;;1.10;;
71679;SDS011;59512;42.662;23.254;2022-11-20T07:07:55;5.88;;;1.50;;
71679;SDS011;59512;42.662;23.254;2022-11-20T07:10:21;5.22;;;1.30;;
71679;SDS011;59512;42.662;23.254;2022-11-20T07:12:52;7.30;;;1.80;;
71679;SDS011;59512;42.662;23.254;2022-11-20T07:15:20;4.80;;;1.20;;
71679;SDS011;59512;42.662;23.254;2022-11-20T07:17:46;7.30;;;1.40;;
71679;SDS011;59512;42.662;23.254;2022-11-20T07:20:12;5.27;;;1.30;;
71679;SDS011;59512;42.662;23.254;2022-11-20T07:22:38;6.93;;;1.65;;
71679;SDS011;59512;42.662;23.254;2022-11-20T07:25:03;4.85;;;1.42;;
71679;SDS011;59512;42.662;23.254;2022-11-20T07:27:29;7.47;;;1.40;;
71679;SDS011;59512;42.662;23.254;2022-11-20T07:29:55;4.60;;;1.58;;
71679;SDS011;59512;42.662;23.254;2022-11-20T07:32:20;6.27;;;1.70;;
71679;SDS011;59512;42.662;23.254;2022-11-20T07:34:46;6.05;;;1.40;;
71679;SDS011;59512;42.662;23.254;2022-11-20T07:37:12;7.28;;;1.45;;
71679;SDS011;59512;42.662;23.254;2022-11-20T07:39:37;6.93;;;1.17;;
71679;SDS011;59512;42.662;23.254;2022-11-20T07:42:03;6.43;;;1.80;;
71679;SDS011;59512;42.662;23.254;2022-11-20T07:44:28;7.77;;;1.73;;
71679;SDS011;59512;42.662;23.254;2022-11-20T07:46:54;6.57;;;1.30;;
71679;SDS011;59512;42.662;23.254;2022-11-20T07:49:19;5.50;;;1.47;;
71679;SDS011;59512;42.662;23.254;2022-11-20T07:51:44;8.00;;;1.43;;
71679;SDS011;59512;42.662;23.254;2022-11-20T07:54:10;7.85;;;1.60;;
71679;SDS011;59512;42.662;23.254;2022-11-20T07:56:35;6.97;;;1.50;;
71679;SDS011;59512;42.662;23.254;2022-11-20T07:59:01;7.67;;;1.70;;
71679;SDS011;59512;42.662;23.254;2022-11-20T08:01:26;8.47;;;1.70;;
71679;SDS011;59512;42.662;23.254;2022-11-20T08:03:51;9.40;;;2.23;;
71679;SDS011;59512;42.662;23.254;2022-11-20T08:06:17;10.20;;;1.90;;
71679;SDS011;59512;42.662;23.254;2022-11-20T08:08:44;5.78;;;1.40;;
71679;SDS011;59512;42.662;23.254;2022-11-20T08:11:09;8.75;;;2.10;;
71679;SDS011;59512;42.662;23.254;2022-11-20T08:13:54;7.25;;;1.63;;
71679;SDS011;59512;42.662;23.254;2022-11-20T08:16:44;6.47;;;1.50;;
71679;SDS011;59512;42.662;23.254;2022-11-20T08:19:11;8.43;;;1.80;;
71679;SDS011;59512;42.662;23.254;2022-11-20T08:21:37;11.13;;;2.33;;
71679;SDS011;59512;42.662;23.254;2022-11-20T08:24:03;9.93;;;1.90;;
71679;SDS011;59512;42.662;23.254;2022-11-20T08:26:29;7.13;;;1.92;;
71679;SDS011;59512;42.662;23.254;2022-11-20T08:28:57;9.10;;;2.07;;
71679;SDS011;59512;42.662;23.254;2022-11-20T08:31:23;11.93;;;2.15;;
71679;SDS011;59512;42.662;23.254;2022-11-20T08:33:50;9.55;;;2.40;;
71679;SDS011;59512;42.662;23.254;2022-11-20T08:36:15;9.63;;;1.97;;
71679;SDS011;59512;42.662;23.254;2022-11-20T08:38:41;7.80;;;1.83;;
71679;SDS011;59512;42.662;23.254;2022-11-20T08:41:06;11.75;;;2.13;;
71679;SDS011;59512;42.662;23.254;2022-11-20T08:43:57;8.95;;;2.40;;
71679;SDS011;59512;42.662;23.254;2022-11-20T08:46:34;6.97;;;2.33;;
71679;SDS011;59512;42.662;23.254;2022-11-20T08:49:07;6.68;;;2.40;;
71679;SDS011;59512;42.662;23.254;2022-11-20T08:51:33;7.63;;;2.50;;
71679;SDS011;59512;42.662;23.254;2022-11-20T08:53:59;9.75;;;3.20;;
71679;SDS011;59512;42.662;23.254;2022-11-20T08:56:25;9.67;;;2.73;;
71679;SDS011;59512;42.662;23.254;2022-11-20T08:58:50;11.80;;;3.10;;
71679;SDS011;59512;42.662;23.254;2022-11-20T09:01:17;8.00;;;3.53;;
71679;SDS011;59512;42.662;23.254;2022-11-20T09:03:43;12.73;;;2.90;;
71679;SDS011;59512;42.662;23.254;2022-11-20T09:06:08;7.10;;;3.30;;
71679;SDS011;59512;42.662;23.254;2022-11-20T09:08:34;9.17;;;3.20;;
71679;SDS011;59512;42.662;23.254;2022-11-20T09:11:01;7.40;;;3.08;;
71679;SDS011;59512;42.662;23.254;2022-11-20T09:13:29;11.60;;;2.80;;
71679;SDS011;59512;42.662;23.254;2022-11-20T09:15:55;6.57;;;2.33;;
71679;SDS011;59512;42.662;23.254;2022-11-20T09:18:22;7.63;;;1.63;;
71679;SDS011;59512;42.662;23.254;2022-11-20T09:20:48;7.40;;;1.77;;
71679;SDS011;59512;42.662;23.254;2022-11-20T09:23:14;6.05;;;1.38;;
71679;SDS011;59512;42.662;23.254;2022-11-20T09:25:40;4.30;;;1.37;;
71679;SDS011;59512;42.662;23.254;2022-11-20T09:28:06;5.68;;;1.48;;
71679;SDS011;59512;42.662;23.254;2022-11-20T09:30:31;5.67;;;1.50;;
71679;SDS011;59512;42.662;23.254;2022-11-20T09:32:56;7.87;;;1.70;;
71679;SDS011;59512;42.662;23.254;2022-11-20T09:35:22;7.57;;;2.00;;
71679;SDS011;59512;42.662;23.254;2022-11-20T09:37:47;9.88;;;2.08;;
71679;SDS011;59512;42.662;23.254;2022-11-20T09:50:47;7.43;;;1.92;;
71679;SDS011;59512;42.662;23.254;2022-11-20T09:53:23;7.97;;;2.00;;
71679;SDS011;59512;42.662;23.254;2022-11-20T09:56:00;10.90;;;2.60;;
71679;SDS011;59512;42.662;23.254;2022-11-20T09:58:38;9.23;;;2.77;;
71679;SDS011;59512;42.662;23.254;2022-11-20T10:01:14;8.95;;;2.78;;
71679;SDS011;59512;42.662;23.254;2022-11-20T10:03:57;9.38;;;3.03;;
71679;SDS011;59512;42.662;23.254;2022-11-20T10:06:33;9.15;;;3.00;;
71679;SDS011;59512;42.662;23.254;2022-11-20T10:11:52;9.50;;;2.80;;
71679;SDS011;59512;42.662;23.254;2022-11-20T10:25:48;11.17;;;3.20;;
71679;SDS011;59512;42.662;23.254;2022-11-20T10:31:14;14.35;;;3.88;;
71679;SDS011;59512;42.662;23.254;2022-11-20T10:37:11;11.27;;;3.88;;
71679;SDS011;59512;42.662;23.254;2022-11-20T10:39:45;13.13;;;3.93;;
71679;SDS011;59512;42.662;23.254;2022-11-20T10:42:41;10.82;;;4.05;;
71679;SDS011;59512;42.662;23.254;2022-11-20T10:47:49;15.07;;;4.30;;
71679;SDS011;59512;42.662;23.254;2022-11-20T10:50:18;14.13;;;4.53;;
71679;SDS011;59512;42.662;23.254;2022-11-20T10:52:51;13.57;;;4.70;;
71679;SDS011;59512;42.662;23.254;2022-11-20T11:01:18;11.40;;;3.42;;
71679;SDS011;59512;42.662;23.254;2022-11-20T11:03:48;9.23;;;2.08;;
71679;SDS011;59512;42.662;23.254;2022-11-20T11:06:22;7.27;;;1.70;;
71679;SDS011;59512;42.662;23.254;2022-11-20T11:08:56;7.28;;;2.00;;
71679;SDS011;59512;42.662;23.254;2022-11-20T11:11:25;5.72;;;1.55;;
71679;SDS011;59512;42.662;23.254;2022-11-20T11:13:52;5.13;;;1.33;;
71679;SDS011;59512;42.662;23.254;2022-11-20T11:16:22;4.03;;;1.00;;
71679;SDS011;59512;42.662;23.254;2022-11-20T11:18:48;4.00;;;0.90;;
71679;SDS011;59512;42.662;23.254;2022-11-20T11:21:19;4.57;;;0.90;;
71679;SDS011;59512;42.662;23.254;2022-11-20T11:23:46;6.07;;;1.08;;
71679;SDS011;59512;42.662;23.254;2022-11-20T11:26:19;3.97;;;0.80;;
71679;SDS011;59512;42.662;23.254;2022-11-20T11:28:58;2.42;;;0.80;;
71679;SDS011;59512;42.662;23.254;2022-11-20T11:31:26;4.15;;;0.65;;
71679;SDS011;59512;42.662;23.254;2022-11-20T11:34:03;3.17;;;0.80;;
71679;SDS011;59512;42.662;23.254;2022-11-20T11:36:38;2.50;;;0.60;;
71679;SDS011;59512;42.662;23.254;2022-11-20T11:39:05;6.40;;;1.13;;
71679;SDS011;59512;42.662;23.254;2022-11-20T11:41:35;3.20;;;0.65;;
71679;SDS011;59512;42.662;23.254;2022-11-20T11:44:20;3.73;;;0.70;;
71679;SDS011;59512;42.662;23.254;2022-11-20T11:55:38;5.00;;;0.80;;
71679;SDS011;59512;42.662;23.254;2022-11-20T12:01:08;8.47;;;0.97;;
71679;SDS011;59512;42.662;23.254;2022-11-20T12:03:37;5.45;;;1.17;;
71679;SDS011;59512;42.662;23.254;2022-11-20T12:06:13;3.70;;;0.88;;
71679;SDS011;59512;42.662;23.254;2022-11-20T12:08:50;4.55;;;0.80;;
71679;SDS011;59512;42.662;23.254;2022-11-20T12:11:23;3.75;;;0.70;;
71679;SDS011;59512;42.662;23.254;2022-11-20T12:13:58;3.40;;;0.70;;
71679;SDS011;59512;42.662;23.254;2022-11-20T12:16:37;3.33;;;0.60;;
71679;SDS011;59512;42.662;23.254;2022-11-20T12:19:04;7.03;;;1.20;;
71679;SDS011;59512;42.662;23.254;2022-11-20T12:21:45;5.22;;;1.10;;
71679;SDS011;59512;42.662;23.254;2022-11-20T12:38:38;5.30;;;1.55;;
71679;SDS011;59512;42.662;23.254;2022-11-20T12:53:11;5.40;;;1.17;;
71679;SDS011;59512;42.662;23.254;2022-11-20T13:00:50;4.60;;;0.90;;
71679;SDS011;59512;42.662;23.254;2022-11-20T13:03:37;5.30;;;1.10;;
71679;SDS011;59512;42.662;23.254;2022-11-20T13:06:17;6.07;;;1.30;;
71679;SDS011;59512;42.662;23.254;2022-11-20T13:08:53;7.93;;;1.40;;
71679;SDS011;59512;42.662;23.254;2022-11-20T13:19:27;11.98;;;5.45;;
71679;SDS011;59512;42.662;23.254;2022-11-20T13:21:54;16.67;;;7.28;;
71679;SDS011;59512;42.662;23.254;2022-11-20T13:29:37;14.95;;;6.90;;
71679;SDS011;59512;42.662;23.254;2022-11-20T13:32:18;15.65;;;6.22;;
71679;SDS011;59512;42.662;23.254;2022-11-20T13:34:55;13.02;;;6.45;;
71679;SDS011;59512;42.662;23.254;2022-11-20T13:37:38;16.70;;;7.70;;
71679;SDS011;59512;42.662;23.254;2022-11-20T13:42:38;26.40;;;12.82;;
71679;SDS011;59512;42.662;23.254;2022-11-20T13:45:31;18.15;;;10.25;;
71679;SDS011;59512;42.662;23.254;2022-11-20T13:48:00;19.67;;;11.07;;
71679;SDS011;59512;42.662;23.254;2022-11-20T13:53:25;19.35;;;7.97;;
71679;SDS011;59512;42.662;23.254;2022-11-20T14:01:23;11.90;;;6.25;;
71679;SDS011;59512;42.662;23.254;2022-11-20T14:03:49;49.60;;;18.77;;
71679;SDS011;59512;42.662;23.254;2022-11-20T14:06:23;14.50;;;5.57;;
71679;SDS011;59512;42.662;23.254;2022-11-20T14:08:57;12.73;;;4.75;;
71679;SDS011;59512;42.662;23.254;2022-11-20T14:11:24;13.38;;;5.15;;
71679;SDS011;59512;42.662;23.254;2022-11-20T14:14:01;10.67;;;3.50;;
71679;SDS011;59512;42.662;23.254;2022-11-20T14:16:47;11.68;;;4.65;;
71679;SDS011;59512;42.662;23.254;2022-11-20T14:21:48;12.90;;;4.50;;
71679;SDS011;59512;42.662;23.254;2022-11-20T14:24:18;13.02;;;3.55;;
71679;SDS011;59512;42.662;23.254;2022-11-20T14:26:45;9.40;;;3.80;;
71679;SDS011;59512;42.662;23.254;2022-11-20T14:29:14;9.43;;;3.70;;
71679;SDS011;59512;42.662;23.254;2022-11-20T14:31:42;7.75;;;2.88;;
71679;SDS011;59512;42.662;23.254;2022-11-20T14:34:15;9.50;;;3.92;;
71679;SDS011;59512;42.662;23.254;2022-11-20T14:36:45;9.10;;;3.15;;
71679;SDS011;59512;42.662;23.254;2022-11-20T14:39:11;7.83;;;3.23;;
71679;SDS011;59512;42.662;23.254;2022-11-20T14:41:37;9.90;;;3.88;;
71679;SDS011;59512;42.662;23.254;2022-11-20T14:44:03;8.80;;;3.90;;
71679;SDS011;59512;42.662;23.254;2022-11-20T14:46:29;11.00;;;3.92;;
71679;SDS011;59512;42.662;23.254;2022-11-20T14:48:56;6.60;;;2.20;;
71679;SDS011;59512;42.662;23.254;2022-11-20T14:51:30;7.73;;;2.20;;
71679;SDS011;59512;42.662;23.254;2022-11-20T14:54:11;6.28;;;1.90;;
71679;SDS011;59512;42.662;23.254;2022-11-20T14:56:42;8.73;;;2.22;;
71679;SDS011;59512;42.662;23.254;2022-11-20T14:59:22;6.05;;;1.70;;
71679;SDS011;59512;42.662;23.254;2022-11-20T15:02:10;8.45;;;2.70;;
71679;SDS011;59512;42.662;23.254;2022-11-20T15:07:25;6.88;;;2.53;;
71679;SDS011;59512;42.662;23.254;2022-11-20T15:10:04;7.20;;;2.40;;
71679;SDS011;59512;42.662;23.254;2022-11-20T15:12:32;8.13;;;2.63;;
71679;SDS011;59512;42.662;23.254;2022-11-20T15:15:00;6.38;;;2.40;;
71679;SDS011;59512;42.662;23.254;2022-11-20T15:17:26;7.63;;;2.50;;
71679;SDS011;59512;42.662;23.254;2022-11-20T15:19:52;13.63;;;4.38;;
71679;SDS011;59512;42.662;23.254;2022-11-20T15:22:18;8.17;;;3.10;;
71679;SDS011;59512;42.662;23.254;2022-11-20T15:24:44;8.02;;;2.90;;
71679;SDS011;59512;42.662;23.254;2022-11-20T15:27:09;5.70;;;2.03;;
71679;SDS011;59512;42.662;23.254;2022-11-20T15:29:35;6.30;;;1.75;;
71679;SDS011;59512;42.662;23.254;2022-11-20T15:32:00;5.20;;;1.97;;
71679;SDS011;59512;42.662;23.254;2022-11-20T15:34:26;6.35;;;1.65;;
71679;SDS011;59512;42.662;23.254;2022-11-20T15:36:52;5.82;;;2.40;;
71679;SDS011;59512;42.662;23.254;2022-11-20T15:39:18;7.53;;;3.10;;
71679;SDS011;59512;42.662;23.254;2022-11-20T15:41:43;10.17;;;2.93;;
71679;SDS011;59512;42.662;23.254;2022-11-20T15:44:09;7.80;;;2.40;;
71679;SDS011;59512;42.662;23.254;2022-11-20T15:46:38;5.90;;;2.10;;
71679;SDS011;59512;42.662;23.254;2022-11-20T15:49:10;8.52;;;3.00;;
71679;SDS011;59512;42.662;23.254;2022-11-20T15:51:37;10.77;;;3.25;;
71679;SDS011;59512;42.662;23.254;2022-11-20T15:54:17;8.70;;;3.33;;
71679;SDS011;59512;42.662;23.254;2022-11-20T15:56:45;13.73;;;4.22;;
71679;SDS011;59512;42.662;23.254;2022-11-20T15:59:11;11.40;;;5.40;;
71679;SDS011;59512;42.662;23.254;2022-11-20T16:01:39;12.57;;;3.70;;
71679;SDS011;59512;42.662;23.254;2022-11-20T16:04:05;8.70;;;3.57;;
71679;SDS011;59512;42.662;23.254;2022-11-20T16:06:37;9.82;;;3.60;;
71679;SDS011;59512;42.662;23.254;2022-11-20T16:09:02;9.10;;;3.70;;
71679;SDS011;59512;42.662;23.254;2022-11-20T16:11:28;7.30;;;2.60;;
71679;SDS011;59512;42.662;23.254;2022-11-20T16:13:54;6.33;;;2.53;;
71679;SDS011;59512;42.662;23.254;2022-11-20T16:16:38;7.57;;;2.30;;
71679;SDS011;59512;42.662;23.254;2022-11-20T16:19:05;5.47;;;1.83;;
71679;SDS011;59512;42.662;23.254;2022-11-20T16:21:31;5.68;;;1.50;;
71679;SDS011;59512;42.662;23.254;2022-11-20T16:23:57;5.10;;;1.70;;
71679;SDS011;59512;42.662;23.254;2022-11-20T16:26:25;6.45;;;2.22;;
71679;SDS011;59512;42.662;23.254;2022-11-20T16:28:50;5.90;;;2.33;;
71679;SDS011;59512;42.662;23.254;2022-11-20T16:31:16;7.13;;;2.80;;
71679;SDS011;59512;42.662;23.254;2022-11-20T16:33:43;6.75;;;2.55;;
71679;SDS011;59512;42.662;23.254;2022-11-20T16:36:14;7.82;;;3.25;;
71679;SDS011;59512;42.662;23.254;2022-11-20T16:38:40;9.77;;;4.03;;